Time;durP1;ratioP1;P1;durP2;ratioP2;P2;SDS_P1;SDS_P2;PMS_P1;PMS_P2;Temp;Humidity;BMP_temperature;BMP_pressure;BME280_temperature;BME280_humidity;BME280_pressure;Samples;Min_cycle;Max_cycle;Signal;HPM_P1;HPM_P2
2023/05/12 00:00:09;;;;;;;141.65;45.92;;;10.60;99.90;;;;;;5038179;28;21021;-75
2023/05/12 00:02:35;;;;;;;153.02;49.35;;;10.70;99.90;;;;;;5048401;28;20361;-75
2023/05/12 00:05:00;;;;;;;149.63;50.90;;;10.70;99.90;;;;;;5045131;28;20029;-75
2023/05/12 00:07:26;;;;;;;169.38;51.92;;;10.70;99.90;;;;;;5049636;28;20373;-75
2023/05/12 00:09:51;;;;;;;191.18;52.70;;;10.70;99.90;;;;;;5041640;28;20021;-75
2023/05/12 00:12:17;;;;;;;201.15;56.65;;;10.70;99.90;;;;;;5046742;28;20055;-75
2023/05/12 00:14:42;;;;;;;177.93;53.83;;;10.70;99.90;;;;;;5046509;28;20082;-75
2023/05/12 00:17:08;;;;;;;177.00;57.83;;;10.70;99.90;;;;;;5040827;28;20029;-75
2023/05/12 00:19:35;;;;;;;187.75;57.15;;;10.70;99.90;;;;;;5048060;28;20033;-75
2023/05/12 00:22:01;;;;;;;310.15;65.55;;;10.70;99.90;;;;;;5047280;28;20357;-75
2023/05/12 00:24:26;;;;;;;204.13;61.50;;;10.70;99.90;;;;;;5050933;28;20063;-75
2023/05/12 00:26:52;;;;;;;202.48;59.97;;;10.70;99.90;;;;;;5040194;28;20505;-75
2023/05/12 00:29:18;;;;;;;173.02;56.63;;;10.70;99.90;;;;;;5042982;28;20037;-75
2023/05/12 00:31:44;;;;;;;190.30;63.17;;;10.70;99.90;;;;;;5042012;28;20028;-75
2023/05/12 00:34:09;;;;;;;186.73;61.50;;;10.60;99.90;;;;;;5045950;28;20528;-75
2023/05/12 00:36:35;;;;;;;206.15;64.07;;;10.60;99.90;;;;;;5047583;28;20036;-75
2023/05/12 00:39:01;;;;;;;186.88;63.42;;;10.70;99.90;;;;;;5046615;28;20740;-75
2023/05/12 00:41:27;;;;;;;206.95;65.20;;;10.80;99.90;;;;;;5045173;28;20017;-75
2023/05/12 00:43:52;;;;;;;210.45;66.63;;;10.80;99.90;;;;;;5038764;28;20027;-75
2023/05/12 00:46:18;;;;;;;208.35;66.82;;;10.90;99.90;;;;;;5046479;28;20481;-75
2023/05/12 00:48:44;;;;;;;220.27;68.00;;;11.00;99.90;;;;;;5058363;28;20074;-75
2023/05/12 00:51:11;;;;;;;233.82;70.20;;;11.10;99.90;;;;;;5050773;28;20040;-75
2023/05/12 00:53:37;;;;;;;225.20;69.80;;;11.20;99.90;;;;;;5054031;28;20376;-75
2023/05/12 00:56:03;;;;;;;216.43;69.40;;;11.20;99.90;;;;;;5046670;28;20025;-75
2023/05/12 00:58:28;;;;;;;251.85;71.38;;;11.30;99.90;;;;;;5050337;28;20037;-74
2023/05/12 01:00:54;;;;;;;209.52;70.38;;;11.30;99.90;;;;;;5047219;28;20032;-75
2023/05/12 01:03:19;;;;;;;195.63;69.55;;;11.50;99.90;;;;;;5048986;28;20033;-75
2023/05/12 01:05:49;;;;;;;197.77;70.13;;;11.50;99.90;;;;;;5047437;28;20032;-75
2023/05/12 01:08:16;;;;;;;195.15;70.85;;;11.50;99.90;;;;;;5048408;28;20039;-75
2023/05/12 01:10:45;;;;;;;201.32;67.50;;;11.50;99.90;;;;;;5046144;28;20039;-75
2023/05/12 01:13:11;;;;;;;178.15;68.13;;;11.50;99.90;;;;;;5048831;28;20018;-75
2023/05/12 01:15:43;;;;;;;184.98;67.40;;;11.50;99.90;;;;;;5042949;28;20033;-75
2023/05/12 01:18:10;;;;;;;164.70;64.03;;;11.50;99.90;;;;;;5045575;28;20484;-75
2023/05/12 01:20:36;;;;;;;167.65;65.53;;;11.50;99.90;;;;;;5046853;28;20021;-75
2023/05/12 01:23:03;;;;;;;169.18;62.90;;;11.60;99.90;;;;;;5048422;28;20037;-75
2023/05/12 01:25:31;;;;;;;158.30;62.83;;;11.60;99.90;;;;;;5043726;28;20056;-75
2023/05/12 01:27:58;;;;;;;147.57;59.70;;;11.60;99.90;;;;;;5053809;28;20031;-75
2023/05/12 01:30:24;;;;;;;143.55;58.45;;;11.60;99.90;;;;;;5045968;28;20356;-74
2023/05/12 01:32:51;;;;;;;139.00;58.20;;;11.60;99.90;;;;;;5046539;28;20037;-75
2023/05/12 01:35:16;;;;;;;124.78;54.58;;;11.60;99.90;;;;;;5040413;28;20059;-75
2023/05/12 01:37:42;;;;;;;117.55;51.90;;;11.50;99.90;;;;;;5060807;28;20096;-75
2023/05/12 01:40:08;;;;;;;126.72;53.15;;;11.50;99.90;;;;;;5046913;28;20020;-75
2023/05/12 01:42:33;;;;;;;104.60;49.00;;;11.60;99.90;;;;;;5046019;28;20024;-75
2023/05/12 01:44:59;;;;;;;96.90;47.17;;;11.60;99.90;;;;;;5052475;28;20037;-75
2023/05/12 01:47:24;;;;;;;105.63;47.60;;;11.50;99.90;;;;;;5046798;28;20037;-75
2023/05/12 01:49:50;;;;;;;101.90;45.40;;;11.50;99.90;;;;;;5053114;28;20029;-75
2023/05/12 01:52:16;;;;;;;98.43;43.83;;;11.50;99.90;;;;;;5049801;28;20033;-75
2023/05/12 01:54:41;;;;;;;79.32;42.10;;;11.50;99.90;;;;;;5049049;28;20021;-75
2023/05/12 01:57:07;;;;;;;76.20;39.15;;;11.50;99.90;;;;;;5050106;28;20081;-75
2023/05/12 01:59:32;;;;;;;72.03;39.58;;;11.50;99.90;;;;;;5045471;28;20143;-75
2023/05/12 02:01:57;;;;;;;68.07;37.05;;;11.40;99.90;;;;;;5044991;28;20029;-74
2023/05/12 02:04:23;;;;;;;74.35;37.40;;;11.40;99.90;;;;;;5045527;28;20033;-75
2023/05/12 02:06:48;;;;;;;63.75;32.88;;;11.40;99.90;;;;;;5057982;28;20055;-75
2023/05/12 02:09:14;;;;;;;54.67;31.98;;;11.40;99.90;;;;;;5045342;28;20430;-75
2023/05/12 02:11:39;;;;;;;59.65;32.83;;;11.30;99.90;;;;;;5057751;28;20036;-75
2023/05/12 02:14:05;;;;;;;56.72;31.50;;;11.30;99.90;;;;;;5046841;28;20466;-75
2023/05/12 02:16:31;;;;;;;52.10;30.25;;;11.30;99.90;;;;;;5047305;28;20111;-75
2023/05/12 02:18:56;;;;;;;48.15;28.83;;;11.20;99.90;;;;;;5050293;28;20028;-75
2023/05/12 02:21:22;;;;;;;46.13;27.92;;;11.20;99.90;;;;;;5049237;28;20045;-75
2023/05/12 02:23:47;;;;;;;51.17;26.95;;;11.20;99.90;;;;;;5051912;28;20132;-75
2023/05/12 02:26:13;;;;;;;37.58;24.77;;;11.10;99.90;;;;;;5048662;28;20033;-75
2023/05/12 02:28:38;;;;;;;44.00;26.02;;;11.10;99.90;;;;;;5049794;28;20086;-75
2023/05/12 02:31:04;;;;;;;40.42;24.02;;;11.10;99.90;;;;;;5047948;28;20377;-75
2023/05/12 02:33:29;;;;;;;37.22;24.02;;;11.10;99.90;;;;;;5045136;28;20094;-75
2023/05/12 02:35:55;;;;;;;41.38;23.73;;;11.10;99.90;;;;;;5045413;28;20123;-75
2023/05/12 02:38:21;;;;;;;36.60;22.70;;;11.00;99.90;;;;;;5048450;28;20025;-75
2023/05/12 02:40:46;;;;;;;36.05;22.85;;;11.00;99.90;;;;;;5055350;28;20457;-75
2023/05/12 02:43:12;;;;;;;34.33;21.90;;;11.00;99.90;;;;;;5052371;28;20052;-75
2023/05/12 02:45:38;;;;;;;31.25;21.33;;;10.90;99.90;;;;;;5047320;28;20028;-75
2023/05/12 02:48:04;;;;;;;30.27;19.90;;;10.90;99.90;;;;;;5044598;28;20029;-75
2023/05/12 02:50:30;;;;;;;32.55;21.45;;;10.90;99.90;;;;;;5041231;28;20037;-75
2023/05/12 02:52:56;;;;;;;29.38;21.55;;;10.90;99.90;;;;;;5048881;28;20033;-75
2023/05/12 02:55:21;;;;;;;35.47;20.95;;;10.90;99.90;;;;;;5050333;28;20031;-75
2023/05/12 02:57:46;;;;;;;31.90;21.58;;;10.80;99.90;;;;;;5052622;28;20033;-75
2023/05/12 03:00:12;;;;;;;30.85;21.48;;;10.80;99.90;;;;;;5041812;28;20112;-75
2023/05/12 03:02:38;;;;;;;32.00;21.88;;;10.80;99.90;;;;;;5046121;28;20024;-75
2023/05/12 03:05:04;;;;;;;28.90;20.38;;;10.80;99.90;;;;;;5043675;28;20025;-75
2023/05/12 03:07:30;;;;;;;34.47;21.05;;;10.80;99.90;;;;;;5041911;28;20033;-75
2023/05/12 03:09:56;;;;;;;29.52;21.10;;;10.80;99.90;;;;;;5043017;28;20377;-75
2023/05/12 03:12:22;;;;;;;29.48;20.20;;;10.80;99.90;;;;;;5048700;28;20110;-75
2023/05/12 03:14:47;;;;;;;31.48;21.20;;;10.80;99.90;;;;;;5040491;28;20451;-75
2023/05/12 03:17:13;;;;;;;28.80;18.92;;;10.80;99.90;;;;;;5048742;28;20060;-75
2023/05/12 03:19:38;;;;;;;31.50;20.98;;;10.80;99.90;;;;;;5045678;28;20040;-75
2023/05/12 03:22:06;;;;;;;28.60;18.52;;;10.70;99.90;;;;;;5049831;28;20017;-76
2023/05/12 03:24:31;;;;;;;28.38;19.95;;;10.70;99.90;;;;;;5046891;28;20041;-75
2023/05/12 03:26:57;;;;;;;28.50;19.42;;;10.80;99.90;;;;;;5046809;28;20031;-75
2023/05/12 03:29:24;;;;;;;29.40;19.73;;;10.80;99.90;;;;;;5049071;28;20051;-75
2023/05/12 03:31:49;;;;;;;28.70;19.85;;;10.80;99.90;;;;;;5048242;28;20037;-75
2023/05/12 03:34:15;;;;;;;28.90;19.05;;;10.70;99.90;;;;;;5043795;28;20029;-75
2023/05/12 03:36:41;;;;;;;24.75;18.45;;;10.70;99.90;;;;;;5050104;28;20036;-76
2023/05/12 03:39:08;;;;;;;29.67;19.00;;;10.70;99.90;;;;;;5044702;28;20025;-75
2023/05/12 03:41:34;;;;;;;28.58;19.02;;;10.70;99.80;;;;;;5051776;28;20124;-75
2023/05/12 03:43:59;;;;;;;26.80;18.42;;;10.70;99.90;;;;;;5048848;28;20483;-75
2023/05/12 03:46:25;;;;;;;26.15;18.75;;;10.70;99.80;;;;;;5042792;28;20020;-75
2023/05/12 03:48:50;;;;;;;26.67;18.67;;;10.70;99.80;;;;;;5044244;28;20032;-75
2023/05/12 03:51:16;;;;;;;26.33;18.83;;;10.70;99.80;;;;;;5048415;28;20032;-75
2023/05/12 03:53:44;;;;;;;22.15;17.35;;;10.70;99.80;;;;;;5045385;28;20284;-75
2023/05/12 03:56:10;;;;;;;27.85;19.50;;;10.70;99.80;;;;;;5046779;28;20517;-75
2023/05/12 03:58:35;;;;;;;25.80;18.67;;;10.70;99.80;;;;;;5046258;28;20072;-75
2023/05/12 04:01:01;;;;;;;26.08;17.92;;;10.80;99.80;;;;;;5042675;28;20111;-75
2023/05/12 04:03:30;;;;;;;23.00;17.83;;;10.80;99.70;;;;;;5039283;28;20067;-75
2023/05/12 04:06:02;;;;;;;26.42;17.45;;;10.80;99.70;;;;;;5046457;28;20056;-75
2023/05/12 04:08:28;;;;;;;25.30;18.33;;;10.80;99.70;;;;;;5050571;28;20032;-75
2023/05/12 04:10:56;;;;;;;21.85;16.95;;;10.80;99.70;;;;;;5046777;28;20100;-75
2023/05/12 04:13:21;;;;;;;21.85;17.00;;;10.80;99.70;;;;;;5044482;28;20033;-75
2023/05/12 04:15:48;;;;;;;23.33;17.33;;;10.90;99.70;;;;;;5037821;28;20029;-75
2023/05/12 04:18:13;;;;;;;23.45;16.67;;;10.90;99.70;;;;;;5038205;28;20021;-76
2023/05/12 04:20:39;;;;;;;23.75;17.58;;;10.90;99.60;;;;;;5043179;28;20040;-75
2023/05/12 04:23:05;;;;;;;21.02;15.70;;;11.00;99.50;;;;;;5041411;28;20028;-75
2023/05/12 04:25:31;;;;;;;21.67;15.65;;;11.00;99.50;;;;;;5042084;28;20192;-75
2023/05/12 04:27:56;;;;;;;21.00;16.50;;;11.00;99.40;;;;;;5051209;28;20041;-75
2023/05/12 04:30:22;;;;;;;20.92;15.68;;;11.10;99.30;;;;;;5048313;28;20458;-79
2023/05/12 04:32:47;;;;;;;19.70;15.93;;;11.10;99.30;;;;;;5051537;28;20040;-80
2023/05/12 04:35:13;;;;;;;17.83;14.60;;;11.10;99.40;;;;;;5048113;28;20017;-76
2023/05/12 04:37:39;;;;;;;19.73;15.13;;;11.10;99.40;;;;;;5048847;28;20037;-76
2023/05/12 04:40:07;;;;;;;18.15;13.57;;;11.20;99.40;;;;;;5044926;28;20115;-76
2023/05/12 04:42:33;;;;;;;25.27;14.30;;;11.10;99.10;;;;;;5048881;28;20016;-77
2023/05/12 04:44:59;;;;;;;17.23;13.02;;;11.20;98.90;;;;;;5058500;28;20511;-76
2023/05/12 04:47:24;;;;;;;18.25;13.00;;;11.20;98.70;;;;;;5073846;28;20533;-76
2023/05/12 04:49:50;;;;;;;17.30;11.85;;;11.20;98.80;;;;;;5052214;28;20412;-76
2023/05/12 04:52:15;;;;;;;16.65;12.57;;;11.30;98.90;;;;;;5054634;28;20051;-78
2023/05/12 04:54:40;;;;;;;19.45;12.57;;;11.40;99.00;;;;;;5043850;28;20032;-74
2023/05/12 04:57:07;;;;;;;16.60;12.40;;;11.30;99.00;;;;;;5043725;28;20119;-77
2023/05/12 04:59:32;;;;;;;17.77;11.77;;;11.40;99.00;;;;;;5048518;28;20066;-81
2023/05/12 05:01:58;;;;;;;14.77;12.15;;;11.50;99.10;;;;;;5047559;28;20028;-80
2023/05/12 05:04:23;;;;;;;14.05;10.43;;;11.50;99.10;;;;;;5049381;28;20021;-79
2023/05/12 05:06:49;;;;;;;15.15;10.30;;;11.50;99.00;;;;;;5055400;28;20466;-79
2023/05/12 05:09:14;;;;;;;14.05;9.50;;;11.50;98.60;;;;;;5066479;28;20032;-79
2023/05/12 05:11:40;;;;;;;16.80;9.52;;;11.60;98.30;;;;;;5062269;28;20066;-78
2023/05/12 05:14:05;;;;;;;16.52;9.25;;;11.70;98.20;;;;;;5059308;28;20029;-79
2023/05/12 05:16:31;;;;;;;14.90;10.20;;;11.70;98.50;;;;;;5051379;28;20033;-78
2023/05/12 05:18:56;;;;;;;13.07;9.25;;;11.80;98.70;;;;;;5051986;28;20029;-78
2023/05/12 05:21:22;;;;;;;11.88;9.00;;;11.90;98.90;;;;;;5053522;28;20441;-81
2023/05/12 05:23:51;;;;;;;10.77;9.05;;;12.00;99.00;;;;;;5046129;28;20223;-80
2023/05/12 05:26:16;;;;;;;14.00;9.40;;;12.10;99.10;;;;;;5058981;28;20037;-80
2023/05/12 05:28:42;;;;;;;15.32;8.80;;;12.10;99.00;;;;;;5053070;28;20333;-79
2023/05/12 05:31:13;;;;;;;11.18;9.13;;;12.20;98.90;;;;;;5054533;28;20096;-80
2023/05/12 05:33:39;;;;;;;11.88;8.65;;;12.30;98.90;;;;;;5047574;28;20027;-80
2023/05/12 05:36:05;;;;;;;12.55;8.10;;;12.30;98.80;;;;;;5053295;28;20033;-81
2023/05/12 05:38:31;;;;;;;11.18;8.65;;;12.30;98.50;;;;;;5054011;28;20021;-81
2023/05/12 05:40:56;;;;;;;11.85;8.50;;;12.40;98.50;;;;;;5053216;28;20039;-78
2023/05/12 05:43:22;;;;;;;9.27;7.97;;;12.50;98.40;;;;;;5047694;28;20021;-77
2023/05/12 05:45:50;;;;;;;10.45;7.60;;;12.60;98.40;;;;;;5046893;28;20025;-78
2023/05/12 05:48:17;;;;;;;10.30;7.15;;;12.60;98.20;;;;;;5046865;28;20355;-78
2023/05/12 05:50:43;;;;;;;9.38;7.20;;;12.60;98.00;;;;;;5047425;28;20381;-77
2023/05/12 05:53:08;;;;;;;8.43;7.00;;;12.60;97.90;;;;;;5040959;28;20106;-77
2023/05/12 05:55:34;;;;;;;9.68;6.65;;;12.80;97.90;;;;;;5051454;28;20063;-77
2023/05/12 05:57:59;;;;;;;12.35;6.82;;;12.70;97.80;;;;;;5048171;28;20047;-76
2023/05/12 06:00:25;;;;;;;11.65;6.68;;;12.80;97.40;;;;;;5050084;28;20487;-77
2023/05/12 06:02:50;;;;;;;7.53;6.53;;;12.90;97.30;;;;;;5051393;28;20041;-78
2023/05/12 06:05:16;;;;;;;12.20;6.53;;;13.00;97.50;;;;;;5050485;28;20454;-77
2023/05/12 06:07:42;;;;;;;8.02;6.00;;;13.10;97.30;;;;;;5045005;28;20041;-78
2023/05/12 06:10:07;;;;;;;8.75;6.80;;;13.20;97.10;;;;;;5045364;28;20119;-77
2023/05/12 06:12:33;;;;;;;10.70;6.25;;;13.20;97.00;;;;;;5048690;28;20147;-77
2023/05/12 06:14:58;;;;;;;9.02;6.50;;;13.30;97.10;;;;;;5041913;28;20184;-77
2023/05/12 06:17:24;;;;;;;10.77;6.43;;;13.50;97.00;;;;;;5049899;28;20111;-78
2023/05/12 06:19:49;;;;;;;11.70;6.10;;;13.60;96.70;;;;;;5050982;28;20047;-77
2023/05/12 06:22:15;;;;;;;12.07;6.28;;;13.70;96.40;;;;;;5044396;28;20036;-78
2023/05/12 06:24:41;;;;;;;7.18;5.20;;;13.70;94.50;;;;;;5047719;28;20403;-77
2023/05/12 06:27:07;;;;;;;9.20;5.70;;;13.80;93.10;;;;;;5050995;28;20475;-77
2023/05/12 06:29:32;;;;;;;10.43;6.00;;;14.10;94.30;;;;;;5050420;28;20029;-77
2023/05/12 06:31:58;;;;;;;8.68;5.85;;;14.10;94.00;;;;;;5040201;28;20074;-77
2023/05/12 06:34:23;;;;;;;8.95;5.75;;;14.30;94.70;;;;;;5036135;28;20029;-77
2023/05/12 06:36:49;;;;;;;10.18;5.50;;;14.30;94.30;;;;;;5052622;28;20087;-77
2023/05/12 06:39:14;;;;;;;7.28;5.00;;;14.50;94.30;;;;;;5048320;28;20083;-77
2023/05/12 06:41:40;;;;;;;8.65;5.40;;;14.40;91.00;;;;;;5050423;28;20113;-77
2023/05/12 06:44:11;;;;;;;9.20;5.20;;;14.60;93.00;;;;;;5049977;28;20033;-77
2023/05/12 06:46:39;;;;;;;;;;;14.70;92.70;;;;;;5050810;28;20025;-77
2023/05/12 06:49:05;;;;;;;7.93;5.32;;;14.70;91.40;;;;;;5046712;28;19966;-77
2023/05/12 06:51:31;;;;;;;7.57;5.32;;;14.80;92.00;;;;;;5052557;28;20027;-77
2023/05/12 06:53:57;;;;;;;9.32;5.38;;;14.90;91.40;;;;;;5052919;28;20449;-77
2023/05/12 06:56:22;;;;;;;10.63;5.32;;;15.00;91.30;;;;;;5042766;28;20037;-77
2023/05/12 06:58:48;;;;;;;8.15;4.97;;;15.10;89.60;;;;;;5041992;28;20021;-73
2023/05/12 07:01:15;;;;;;;6.38;4.80;;;15.20;90.30;;;;;;5053727;28;20397;-76
2023/05/12 07:03:40;;;;;;;8.10;4.47;;;15.30;90.40;;;;;;5047403;28;20587;-76
2023/05/12 07:06:06;;;;;;;12.20;4.72;;;15.40;90.30;;;;;;5056269;28;20115;-76
2023/05/12 07:08:31;;;;;;;7.95;5.05;;;15.40;88.40;;;;;;5049230;28;20273;-76
2023/05/12 07:10:59;;;;;;;7.00;4.30;;;15.60;89.80;;;;;;5056791;28;20028;-75
2023/05/12 07:13:25;;;;;;;9.43;4.75;;;15.60;85.40;;;;;;5053186;28;20013;-75
2023/05/12 07:15:50;;;;;;;7.95;3.97;;;15.60;86.70;;;;;;5056133;28;20433;-75
2023/05/12 07:18:16;;;;;;;7.60;4.57;;;15.70;85.90;;;;;;5049136;28;20437;-75
2023/05/12 07:20:42;;;;;;;7.22;4.32;;;15.80;85.80;;;;;;5049888;28;20024;-75
2023/05/12 07:23:08;;;;;;;9.30;4.57;;;15.90;87.60;;;;;;5044403;28;20033;-75
2023/05/12 07:25:33;;;;;;;8.52;4.35;;;16.00;86.40;;;;;;5046382;28;20465;-75
2023/05/12 07:27:59;;;;;;;5.88;4.18;;;16.00;86.00;;;;;;5050911;28;20033;-75
2023/05/12 07:30:24;;;;;;;9.88;4.40;;;16.00;86.10;;;;;;5050297;28;20044;-75
2023/05/12 07:32:50;;;;;;;6.53;4.10;;;16.00;84.20;;;;;;5045085;28;20040;-75
2023/05/12 07:35:16;;;;;;;8.75;4.20;;;16.20;85.30;;;;;;5045265;28;20074;-75
2023/05/12 07:37:41;;;;;;;9.52;4.43;;;16.30;84.80;;;;;;5045496;28;20075;-76
2023/05/12 07:40:07;;;;;;;5.80;4.18;;;16.30;84.40;;;;;;5041820;28;20096;-76
2023/05/12 07:42:33;;;;;;;6.53;3.80;;;16.30;83.50;;;;;;5046988;28;20033;-76
2023/05/12 07:44:58;;;;;;;6.90;4.13;;;16.50;83.30;;;;;;5047397;28;20032;-76
2023/05/12 07:47:24;;;;;;;6.78;4.10;;;16.60;84.50;;;;;;5045035;28;20041;-76
2023/05/12 07:49:49;;;;;;;5.85;4.05;;;16.70;83.30;;;;;;5047167;28;20037;-76
2023/05/12 07:52:15;;;;;;;8.25;4.00;;;16.70;83.70;;;;;;5043410;28;20028;-76
2023/05/12 07:54:40;;;;;;;8.00;4.20;;;16.90;82.90;;;;;;5047682;28;20449;-76
2023/05/12 07:57:06;;;;;;;6.78;3.83;;;17.00;83.30;;;;;;5052118;28;20044;-76
2023/05/12 07:59:32;;;;;;;6.18;3.60;;;16.80;75.80;;;;;;5048859;28;20464;-76
2023/05/12 08:01:57;;;;;;;6.10;3.75;;;16.90;79.80;;;;;;5050744;28;20033;-76
2023/05/12 08:04:23;;;;;;;9.02;4.10;;;17.00;78.20;;;;;;5050483;28;20869;-76
2023/05/12 08:06:48;;;;;;;11.10;3.95;;;17.20;80.20;;;;;;5043554;28;20105;-76
2023/05/12 08:09:14;;;;;;;8.55;4.35;;;17.50;81.70;;;;;;5051189;28;20037;-76
2023/05/12 08:11:39;;;;;;;5.53;3.47;;;17.50;79.30;;;;;;5053597;28;20044;-76
2023/05/12 08:14:05;;;;;;;7.78;3.72;;;17.70;81.00;;;;;;5046427;28;20381;-76
2023/05/12 08:16:30;;;;;;;9.48;3.85;;;17.90;81.00;;;;;;5050597;28;20017;-76
2023/05/12 08:18:56;;;;;;;10.45;3.92;;;18.10;77.30;;;;;;5049647;28;20028;-76
2023/05/12 08:21:21;;;;;;;8.88;3.95;;;18.30;77.40;;;;;;5054224;28;20039;-76
2023/05/12 08:23:47;;;;;;;7.93;3.97;;;18.70;78.40;;;;;;5055857;28;20090;-77
2023/05/12 08:26:12;;;;;;;8.57;3.20;;;18.90;77.00;;;;;;5054260;28;20373;-76
2023/05/12 08:28:38;;;;;;;7.60;3.60;;;19.00;76.50;;;;;;5053596;28;20040;-76
2023/05/12 08:31:03;;;;;;;7.32;3.60;;;19.20;72.70;;;;;;5049013;28;22367;-76
2023/05/12 08:33:29;;;;;;;7.72;3.75;;;19.60;76.90;;;;;;5050193;28;20466;-76
2023/05/12 08:35:54;;;;;;;8.40;3.60;;;19.70;76.60;;;;;;5056305;28;20044;-76
2023/05/12 08:38:20;;;;;;;7.78;3.40;;;19.80;74.10;;;;;;5056698;28;20029;-76
2023/05/12 08:40:55;;;;;;;7.13;3.35;;;20.00;73.40;;;;;;5066671;28;20082;-76
2023/05/12 08:43:29;;;;;;;6.68;2.97;;;20.20;74.10;;;;;;5068192;28;20461;-77
2023/05/12 08:45:58;;;;;;;8.00;3.80;;;20.10;70.20;;;;;;5052269;28;20037;-77
2023/05/12 08:48:26;;;;;;;7.60;3.75;;;20.30;71.50;;;;;;5046996;28;20040;-76
2023/05/12 08:50:53;;;;;;;4.75;3.08;;;20.60;73.00;;;;;;5058940;28;20025;-77
2023/05/12 08:53:21;;;;;;;6.82;3.90;;;21.00;72.00;;;;;;5051866;28;20163;-77
2023/05/12 08:55:47;;;;;;;7.90;3.38;;;20.90;69.00;;;;;;5053457;28;20397;-77
2023/05/12 08:58:14;;;;;;;7.63;3.90;;;20.80;67.10;;;;;;5050206;28;20359;-76
2023/05/12 09:00:40;;;;;;;8.35;3.25;;;20.90;70.60;;;;;;5045986;28;20041;-76
2023/05/12 09:03:06;;;;;;;6.60;3.20;;;20.80;68.00;;;;;;5048857;28;20358;-77
2023/05/12 09:05:33;;;;;;;6.07;3.38;;;20.90;68.30;;;;;;5052361;28;20043;-77
2023/05/12 09:07:59;;;;;;;6.63;3.45;;;20.80;66.80;;;;;;5055229;28;20044;-77
2023/05/12 09:10:27;;;;;;;16.85;3.42;;;20.80;66.90;;;;;;5051302;28;20087;-77
2023/05/12 09:12:57;;;;;;;5.90;3.55;;;21.40;68.00;;;;;;5045252;28;20091;-77
2023/05/12 09:15:29;;;;;;;6.88;3.20;;;21.80;64.80;;;;;;5047659;28;20024;-77
2023/05/12 09:17:55;;;;;;;8.88;3.30;;;22.00;63.90;;;;;;5047613;28;20033;-77
2023/05/12 09:20:20;;;;;;;5.35;3.15;;;22.30;63.60;;;;;;5051783;28;20035;-77
2023/05/12 09:22:46;;;;;;;5.50;2.92;;;22.20;64.40;;;;;;5052334;28;20398;-77
2023/05/12 09:25:20;;;;;;;12.10;3.47;;;22.10;61.60;;;;;;5053991;28;20373;-76
2023/05/12 09:27:47;;;;;;;11.60;3.67;;;22.00;67.20;;;;;;5057042;28;20053;-77
2023/05/12 09:30:14;;;;;;;7.22;3.30;;;21.90;63.80;;;;;;5059896;28;20033;-77
2023/05/12 09:32:39;;;;;;;10.18;3.70;;;21.80;62.90;;;;;;5052334;28;20037;-77
2023/05/12 09:35:12;;;;;;;5.43;3.17;;;22.00;59.40;;;;;;5065000;28;20020;-77
2023/05/12 09:37:38;;;;;;;5.45;2.90;;;22.30;60.00;;;;;;5051508;28;20108;-77
2023/05/12 09:40:06;;;;;;;4.93;3.03;;;22.50;57.00;;;;;;5054118;28;20029;-77
2023/05/12 09:42:34;;;;;;;4.40;2.72;;;22.80;58.40;;;;;;5053855;28;20040;-77
2023/05/12 09:45:10;;;;;;;9.82;3.17;;;23.30;56.00;;;;;;5051014;28;20033;-77
2023/05/12 09:47:39;;;;;;;7.72;2.80;;;23.60;54.60;;;;;;5048672;28;20040;-77
2023/05/12 09:50:07;;;;;;;3.88;2.50;;;23.30;54.40;;;;;;5051669;28;20048;-76
2023/05/12 09:52:37;;;;;;;7.40;2.83;;;23.20;48.60;;;;;;5050213;28;20063;-76
2023/05/12 09:55:05;;;;;;;7.38;2.90;;;23.40;52.20;;;;;;5053135;28;20024;-76
2023/05/12 09:57:34;;;;;;;6.07;2.92;;;23.70;55.90;;;;;;5048942;28;20049;-76
2023/05/12 10:00:01;;;;;;;6.90;2.83;;;24.10;55.40;;;;;;5049687;28;20374;-76
2023/05/12 10:02:27;;;;;;;5.93;3.10;;;24.40;52.50;;;;;;5052758;28;20033;-76
2023/05/12 10:04:59;;;;;;;5.30;2.80;;;24.70;49.70;;;;;;5054949;28;20047;-76
2023/05/12 10:07:26;;;;;;;7.68;2.80;;;24.60;49.70;;;;;;5052625;28;20032;-76
2023/05/12 10:09:54;;;;;;;4.40;2.63;;;24.50;49.20;;;;;;5050972;28;20108;-76
2023/05/12 10:12:19;;;;;;;6.53;2.90;;;24.10;49.60;;;;;;5054144;28;20037;-75
2023/05/12 10:14:46;;;;;;;9.27;2.67;;;24.30;46.80;;;;;;5047130;28;20036;-76
2023/05/12 10:17:12;;;;;;;6.13;2.97;;;24.00;48.10;;;;;;5033520;28;20037;-75
2023/05/12 10:19:40;;;;;;;5.03;2.70;;;24.00;48.30;;;;;;5045368;28;20045;-75
2023/05/12 10:22:10;;;;;;;6.03;2.80;;;24.00;50.80;;;;;;5046776;28;20029;-75
2023/05/12 10:24:36;;;;;;;6.97;2.47;;;24.20;50.40;;;;;;5042348;28;20099;-76
2023/05/12 10:27:04;;;;;;;6.60;2.63;;;24.40;48.80;;;;;;5044987;28;20025;-76
2023/05/12 10:29:31;;;;;;;5.75;2.53;;;24.30;45.40;;;;;;5047369;28;20021;-76
2023/05/12 10:31:58;;;;;;;6.25;2.90;;;24.10;44.00;;;;;;5046445;28;20025;-76
2023/05/12 10:34:31;;;;;;;6.00;2.30;;;24.50;45.50;;;;;;5045031;28;20071;-75
2023/05/12 10:36:57;;;;;;;7.40;2.67;;;24.40;45.60;;;;;;5057477;28;20029;-75
2023/05/12 10:39:31;;;;;;;8.93;3.10;;;24.40;42.70;;;;;;5044757;28;20114;-75
2023/05/12 10:42:04;;;;;;;7.95;2.60;;;24.40;44.10;;;;;;5049868;28;20017;-75
2023/05/12 10:44:29;;;;;;;3.88;2.40;;;24.80;44.50;;;;;;5047473;28;20071;-75
2023/05/12 10:46:57;;;;;;;8.35;2.65;;;25.00;44.10;;;;;;5043514;28;20021;-76
2023/05/12 10:49:37;;;;;;;6.25;2.70;;;25.20;43.30;;;;;;5039848;28;20470;-77
2023/05/12 10:52:03;;;;;;;6.10;2.53;;;25.20;41.80;;;;;;5043437;28;20466;-76
2023/05/12 10:54:35;;;;;;;5.50;2.70;;;24.10;43.70;;;;;;5054978;28;20040;-75
2023/05/12 10:57:01;;;;;;;10.02;2.58;;;24.30;42.90;;;;;;5059687;28;20025;-76
2023/05/12 10:59:27;;;;;;;5.25;2.80;;;24.80;39.10;;;;;;5052699;28;20017;-76
2023/05/12 11:02:01;;;;;;;5.00;2.53;;;25.50;43.00;;;;;;5055210;28;20021;-76
2023/05/12 11:04:50;;;;;;;4.90;2.70;;;25.90;40.30;;;;;;5041774;28;20056;-76
2023/05/12 11:07:22;;;;;;;5.97;2.30;;;25.60;37.80;;;;;;5040223;28;20016;-74
2023/05/12 11:09:49;;;;;;;4.28;2.40;;;24.70;36.60;;;;;;5051536;28;20032;-76
2023/05/12 11:12:15;;;;;;;6.57;2.50;;;24.50;41.20;;;;;;5044275;28;20458;-76
2023/05/12 11:14:42;;;;;;;5.38;2.47;;;23.50;43.70;;;;;;5048470;28;20036;-76
2023/05/12 11:17:09;;;;;;;5.38;2.15;;;23.30;42.70;;;;;;5043552;28;20375;-75
2023/05/12 11:19:36;;;;;;;6.05;2.60;;;23.10;43.70;;;;;;5040628;28;20028;-76
2023/05/12 11:22:06;;;;;;;8.70;2.28;;;23.00;44.20;;;;;;5047717;28;20056;-75
2023/05/12 11:24:32;;;;;;;8.47;2.43;;;22.80;41.60;;;;;;5046389;28;20495;-75
2023/05/12 11:26:57;;;;;;;3.35;2.25;;;22.90;43.90;;;;;;5046420;28;20473;-75
2023/05/12 11:29:23;;;;;;;5.18;2.20;;;22.90;46.60;;;;;;5045446;28;20063;-75
2023/05/12 11:31:52;;;;;;;4.40;2.15;;;23.70;42.00;;;;;;5049077;28;20467;-76
2023/05/12 11:34:24;;;;;;;6.60;2.30;;;24.50;39.60;;;;;;5039611;28;20040;-76
2023/05/12 11:36:51;;;;;;;4.65;2.20;;;24.10;38.50;;;;;;5043277;28;20025;-76
2023/05/12 11:39:31;;;;;;;6.13;2.13;;;23.70;39.30;;;;;;5053384;28;20025;-76
2023/05/12 11:42:07;;;;;;;6.70;2.70;;;23.30;41.10;;;;;;5060031;28;20079;-75
2023/05/12 11:44:32;;;;;;;4.07;2.10;;;23.50;45.80;;;;;;5053009;28;20029;-77
2023/05/12 11:47:11;;;;;;;3.28;2.30;;;23.60;40.60;;;;;;5050679;28;20479;-76
2023/05/12 11:49:50;;;;;;;6.10;2.33;;;24.00;41.60;;;;;;5049720;28;20032;-76
2023/05/12 11:52:18;;;;;;;10.48;2.30;;;25.00;43.90;;;;;;5043225;28;20032;-77
2023/05/12 11:54:57;;;;;;;5.43;2.08;;;25.60;41.20;;;;;;5046944;28;20032;-76
2023/05/12 11:57:27;;;;;;;4.28;2.00;;;25.10;39.30;;;;;;5047425;28;20025;-76
2023/05/12 12:00:01;;;;;;;6.53;2.55;;;24.20;41.90;;;;;;5047596;28;20035;-76
2023/05/12 12:02:27;;;;;;;3.13;2.13;;;23.60;38.90;;;;;;5047585;28;20083;-76
2023/05/12 12:04:53;;;;;;;5.75;1.88;;;24.40;42.60;;;;;;5051597;28;20061;-76
2023/05/12 12:07:35;;;;;;;6.30;2.17;;;25.40;36.10;;;;;;5054316;28;20025;-76
2023/05/12 12:10:12;;;;;;;2.63;1.70;;;26.00;35.50;;;;;;5046625;28;20424;-77
2023/05/12 12:12:38;;;;;;;6.55;2.30;;;27.10;38.30;;;;;;5039356;28;20027;-77
2023/05/12 12:15:04;;;;;;;5.75;1.92;;;27.30;38.00;;;;;;5036834;28;20112;-77
2023/05/12 12:17:30;;;;;;;6.30;1.90;;;27.50;37.90;;;;;;5047162;28;20043;-77
2023/05/12 12:19:56;;;;;;;4.28;2.10;;;27.90;39.10;;;;;;5048998;28;20021;-77
2023/05/12 12:22:22;;;;;;;4.18;2.17;;;27.70;36.00;;;;;;5042454;28;20033;-77
2023/05/12 12:24:47;;;;;;;6.70;2.10;;;27.90;35.10;;;;;;5049451;28;20048;-77
2023/05/12 12:27:13;;;;;;;8.77;2.30;;;27.50;36.00;;;;;;5043279;28;20025;-77
2023/05/12 12:29:38;;;;;;;4.20;2.25;;;27.10;37.80;;;;;;5045302;28;20071;-77
2023/05/12 12:32:04;;;;;;;6.47;2.55;;;26.90;36.70;;;;;;5043463;28;20079;-77